sensor_id;sensor_type;location;lat;lon;timestamp;P1;durP1;ratioP1;P2;durP2;ratioP2
12707;SDS011;6418;50.824;4.718;2022-08-19T00:00:48;16.50;;;12.97;;
12707;SDS011;6418;50.824;4.718;2022-08-19T00:03:15;15.97;;;12.73;;
12707;SDS011;6418;50.824;4.718;2022-08-19T00:05:43;18.17;;;13.03;;
12707;SDS011;6418;50.824;4.718;2022-08-19T00:08:11;19.13;;;13.00;;
12707;SDS011;6418;50.824;4.718;2022-08-19T00:10:38;17.87;;;13.50;;
12707;SDS011;6418;50.824;4.718;2022-08-19T00:13:05;16.93;;;12.97;;
12707;SDS011;6418;50.824;4.718;2022-08-19T00:15:32;17.47;;;13.93;;
12707;SDS011;6418;50.824;4.718;2022-08-19T00:17:59;18.73;;;12.87;;
12707;SDS011;6418;50.824;4.718;2022-08-19T00:20:26;17.63;;;12.60;;
12707;SDS011;6418;50.824;4.718;2022-08-19T00:22:53;16.67;;;13.70;;
12707;SDS011;6418;50.824;4.718;2022-08-19T00:25:22;18.83;;;14.10;;
12707;SDS011;6418;50.824;4.718;2022-08-19T00:27:49;17.63;;;13.67;;
12707;SDS011;6418;50.824;4.718;2022-08-19T00:30:15;18.37;;;14.73;;
12707;SDS011;6418;50.824;4.718;2022-08-19T00:32:43;18.47;;;14.97;;
12707;SDS011;6418;50.824;4.718;2022-08-19T00:35:09;17.83;;;14.47;;
12707;SDS011;6418;50.824;4.718;2022-08-19T00:37:37;19.03;;;14.73;;
12707;SDS011;6418;50.824;4.718;2022-08-19T00:40:08;18.50;;;14.77;;
12707;SDS011;6418;50.824;4.718;2022-08-19T00:42:38;16.47;;;13.30;;
12707;SDS011;6418;50.824;4.718;2022-08-19T00:45:09;21.20;;;14.20;;
12707;SDS011;6418;50.824;4.718;2022-08-19T00:47:38;16.20;;;12.77;;
12707;SDS011;6418;50.824;4.718;2022-08-19T00:50:06;18.30;;;12.87;;
12707;SDS011;6418;50.824;4.718;2022-08-19T00:52:37;15.90;;;12.50;;
12707;SDS011;6418;50.824;4.718;2022-08-19T00:55:11;17.17;;;12.30;;
12707;SDS011;6418;50.824;4.718;2022-08-19T00:57:42;18.33;;;13.10;;
12707;SDS011;6418;50.824;4.718;2022-08-19T01:00:14;16.60;;;13.30;;
12707;SDS011;6418;50.824;4.718;2022-08-19T01:02:44;17.37;;;13.20;;
12707;SDS011;6418;50.824;4.718;2022-08-19T01:05:12;18.80;;;13.23;;
12707;SDS011;6418;50.824;4.718;2022-08-19T01:07:43;17.83;;;13.80;;
12707;SDS011;6418;50.824;4.718;2022-08-19T01:10:11;21.63;;;16.00;;
12707;SDS011;6418;50.824;4.718;2022-08-19T01:12:41;27.17;;;20.67;;
12707;SDS011;6418;50.824;4.718;2022-08-19T01:15:10;24.77;;;20.17;;
12707;SDS011;6418;50.824;4.718;2022-08-19T01:17:39;30.70;;;22.87;;
12707;SDS011;6418;50.824;4.718;2022-08-19T01:20:09;29.57;;;22.87;;
12707;SDS011;6418;50.824;4.718;2022-08-19T01:22:41;22.83;;;18.57;;
12707;SDS011;6418;50.824;4.718;2022-08-19T01:25:12;23.23;;;18.07;;
12707;SDS011;6418;50.824;4.718;2022-08-19T01:27:39;23.53;;;18.33;;
12707;SDS011;6418;50.824;4.718;2022-08-19T01:30:09;22.57;;;17.50;;
12707;SDS011;6418;50.824;4.718;2022-08-19T01:32:37;25.50;;;17.93;;
12707;SDS011;6418;50.824;4.718;2022-08-19T01:35:05;21.93;;;16.87;;
12707;SDS011;6418;50.824;4.718;2022-08-19T01:37:42;22.23;;;16.80;;
12707;SDS011;6418;50.824;4.718;2022-08-19T01:40:10;22.20;;;17.13;;
12707;SDS011;6418;50.824;4.718;2022-08-19T01:42:37;24.07;;;17.27;;
12707;SDS011;6418;50.824;4.718;2022-08-19T01:45:06;24.60;;;19.00;;
12707;SDS011;6418;50.824;4.718;2022-08-19T01:47:34;21.53;;;17.10;;
12707;SDS011;6418;50.824;4.718;2022-08-19T01:50:02;25.73;;;19.03;;
12707;SDS011;6418;50.824;4.718;2022-08-19T01:52:31;25.13;;;18.80;;
12707;SDS011;6418;50.824;4.718;2022-08-19T01:54:59;26.47;;;19.97;;
12707;SDS011;6418;50.824;4.718;2022-08-19T01:57:26;26.70;;;19.33;;
12707;SDS011;6418;50.824;4.718;2022-08-19T01:59:53;25.27;;;18.87;;
12707;SDS011;6418;50.824;4.718;2022-08-19T02:02:21;25.43;;;20.37;;
12707;SDS011;6418;50.824;4.718;2022-08-19T02:04:48;26.33;;;19.50;;
12707;SDS011;6418;50.824;4.718;2022-08-19T02:07:17;26.73;;;19.17;;
12707;SDS011;6418;50.824;4.718;2022-08-19T02:09:45;23.47;;;18.67;;
12707;SDS011;6418;50.824;4.718;2022-08-19T02:12:13;25.20;;;19.87;;
12707;SDS011;6418;50.824;4.718;2022-08-19T02:14:41;28.03;;;20.37;;
12707;SDS011;6418;50.824;4.718;2022-08-19T02:17:08;28.97;;;21.80;;
12707;SDS011;6418;50.824;4.718;2022-08-19T02:19:35;27.23;;;20.37;;
12707;SDS011;6418;50.824;4.718;2022-08-19T02:22:02;30.57;;;23.50;;
12707;SDS011;6418;50.824;4.718;2022-08-19T02:24:29;29.57;;;22.37;;
12707;SDS011;6418;50.824;4.718;2022-08-19T02:26:56;28.80;;;22.03;;
12707;SDS011;6418;50.824;4.718;2022-08-19T02:29:25;28.63;;;22.17;;
12707;SDS011;6418;50.824;4.718;2022-08-19T02:31:51;29.07;;;23.43;;
12707;SDS011;6418;50.824;4.718;2022-08-19T02:34:18;30.37;;;22.50;;
12707;SDS011;6418;50.824;4.718;2022-08-19T02:36:45;28.73;;;22.20;;
12707;SDS011;6418;50.824;4.718;2022-08-19T02:39:12;29.83;;;22.57;;
12707;SDS011;6418;50.824;4.718;2022-08-19T02:41:38;31.53;;;23.07;;
12707;SDS011;6418;50.824;4.718;2022-08-19T02:44:05;31.07;;;22.60;;
12707;SDS011;6418;50.824;4.718;2022-08-19T02:46:34;28.93;;;22.17;;
12707;SDS011;6418;50.824;4.718;2022-08-19T02:49:02;29.93;;;22.93;;
12707;SDS011;6418;50.824;4.718;2022-08-19T02:51:32;32.77;;;23.57;;
12707;SDS011;6418;50.824;4.718;2022-08-19T02:54:01;32.97;;;24.50;;
12707;SDS011;6418;50.824;4.718;2022-08-19T02:56:29;32.33;;;23.63;;
12707;SDS011;6418;50.824;4.718;2022-08-19T02:58:57;35.33;;;25.90;;
12707;SDS011;6418;50.824;4.718;2022-08-19T03:01:25;38.97;;;25.93;;
12707;SDS011;6418;50.824;4.718;2022-08-19T03:03:54;40.33;;;27.17;;
12707;SDS011;6418;50.824;4.718;2022-08-19T03:06:22;36.83;;;26.60;;
12707;SDS011;6418;50.824;4.718;2022-08-19T03:08:50;41.00;;;27.97;;
12707;SDS011;6418;50.824;4.718;2022-08-19T03:11:19;40.87;;;28.37;;
12707;SDS011;6418;50.824;4.718;2022-08-19T03:13:47;40.43;;;28.60;;
12707;SDS011;6418;50.824;4.718;2022-08-19T03:16:15;45.20;;;30.23;;
12707;SDS011;6418;50.824;4.718;2022-08-19T03:18:43;41.63;;;29.23;;
12707;SDS011;6418;50.824;4.718;2022-08-19T03:21:15;50.50;;;33.60;;
12707;SDS011;6418;50.824;4.718;2022-08-19T03:23:43;48.13;;;31.40;;
12707;SDS011;6418;50.824;4.718;2022-08-19T03:26:10;43.83;;;31.40;;
12707;SDS011;6418;50.824;4.718;2022-08-19T03:28:37;47.70;;;32.00;;
12707;SDS011;6418;50.824;4.718;2022-08-19T03:31:05;49.17;;;32.97;;
12707;SDS011;6418;50.824;4.718;2022-08-19T03:33:34;48.87;;;33.37;;
12707;SDS011;6418;50.824;4.718;2022-08-19T03:36:03;49.87;;;33.57;;
12707;SDS011;6418;50.824;4.718;2022-08-19T03:38:35;52.33;;;34.27;;
12707;SDS011;6418;50.824;4.718;2022-08-19T03:41:04;50.40;;;33.97;;
12707;SDS011;6418;50.824;4.718;2022-08-19T03:43:33;48.70;;;33.73;;
12707;SDS011;6418;50.824;4.718;2022-08-19T03:46:02;52.57;;;32.97;;
12707;SDS011;6418;50.824;4.718;2022-08-19T03:48:30;56.13;;;35.13;;
12707;SDS011;6418;50.824;4.718;2022-08-19T03:50:58;51.67;;;34.23;;
12707;SDS011;6418;50.824;4.718;2022-08-19T03:53:25;51.27;;;33.53;;
12707;SDS011;6418;50.824;4.718;2022-08-19T03:55:54;52.77;;;33.17;;
12707;SDS011;6418;50.824;4.718;2022-08-19T03:58:23;52.83;;;34.73;;
12707;SDS011;6418;50.824;4.718;2022-08-19T04:00:50;49.50;;;34.23;;
12707;SDS011;6418;50.824;4.718;2022-08-19T04:03:17;48.90;;;33.07;;
12707;SDS011;6418;50.824;4.718;2022-08-19T04:05:45;50.67;;;33.03;;
12707;SDS011;6418;50.824;4.718;2022-08-19T04:08:12;49.73;;;33.00;;
12707;SDS011;6418;50.824;4.718;2022-08-19T04:10:45;51.97;;;32.70;;
12707;SDS011;6418;50.824;4.718;2022-08-19T04:13:13;46.27;;;32.30;;
12707;SDS011;6418;50.824;4.718;2022-08-19T04:15:41;50.00;;;32.70;;
12707;SDS011;6418;50.824;4.718;2022-08-19T04:18:09;45.00;;;31.20;;
12707;SDS011;6418;50.824;4.718;2022-08-19T04:20:41;45.30;;;30.70;;
12707;SDS011;6418;50.824;4.718;2022-08-19T04:23:09;45.20;;;30.90;;
12707;SDS011;6418;50.824;4.718;2022-08-19T04:25:37;46.07;;;30.47;;
12707;SDS011;6418;50.824;4.718;2022-08-19T04:28:06;48.57;;;31.07;;
12707;SDS011;6418;50.824;4.718;2022-08-19T04:30:49;44.10;;;29.20;;
12707;SDS011;6418;50.824;4.718;2022-08-19T04:33:17;45.57;;;31.07;;
12707;SDS011;6418;50.824;4.718;2022-08-19T04:35:46;53.53;;;32.23;;
12707;SDS011;6418;50.824;4.718;2022-08-19T04:38:15;45.40;;;30.40;;
12707;SDS011;6418;50.824;4.718;2022-08-19T04:40:44;47.43;;;29.13;;
12707;SDS011;6418;50.824;4.718;2022-08-19T04:43:31;47.07;;;29.93;;
12707;SDS011;6418;50.824;4.718;2022-08-19T04:46:00;46.27;;;29.13;;
12707;SDS011;6418;50.824;4.718;2022-08-19T04:48:31;51.40;;;32.83;;
12707;SDS011;6418;50.824;4.718;2022-08-19T04:50:58;48.23;;;31.17;;
12707;SDS011;6418;50.824;4.718;2022-08-19T04:53:25;49.90;;;32.67;;
12707;SDS011;6418;50.824;4.718;2022-08-19T04:55:53;49.70;;;32.33;;
12707;SDS011;6418;50.824;4.718;2022-08-19T04:58:21;54.53;;;32.23;;
12707;SDS011;6418;50.824;4.718;2022-08-19T05:00:48;51.33;;;32.53;;
12707;SDS011;6418;50.824;4.718;2022-08-19T05:03:16;52.90;;;33.33;;
12707;SDS011;6418;50.824;4.718;2022-08-19T05:05:44;52.33;;;33.17;;
12707;SDS011;6418;50.824;4.718;2022-08-19T05:08:14;52.43;;;32.70;;
12707;SDS011;6418;50.824;4.718;2022-08-19T05:10:44;52.87;;;32.10;;
12707;SDS011;6418;50.824;4.718;2022-08-19T05:13:13;55.57;;;33.50;;
12707;SDS011;6418;50.824;4.718;2022-08-19T05:15:41;55.77;;;32.20;;
12707;SDS011;6418;50.824;4.718;2022-08-19T05:18:08;55.70;;;32.30;;
12707;SDS011;6418;50.824;4.718;2022-08-19T05:20:54;56.40;;;33.70;;
12707;SDS011;6418;50.824;4.718;2022-08-19T05:23:38;53.93;;;32.43;;
12707;SDS011;6418;50.824;4.718;2022-08-19T05:26:06;54.57;;;33.33;;
12707;SDS011;6418;50.824;4.718;2022-08-19T05:28:34;54.73;;;32.77;;
12707;SDS011;6418;50.824;4.718;2022-08-19T05:31:01;54.57;;;33.80;;
12707;SDS011;6418;50.824;4.718;2022-08-19T05:33:28;58.63;;;34.97;;
12707;SDS011;6418;50.824;4.718;2022-08-19T05:35:57;52.77;;;32.60;;
12707;SDS011;6418;50.824;4.718;2022-08-19T05:38:24;57.87;;;34.17;;
12707;SDS011;6418;50.824;4.718;2022-08-19T05:40:52;57.50;;;32.70;;
12707;SDS011;6418;50.824;4.718;2022-08-19T05:43:19;62.23;;;32.10;;
12707;SDS011;6418;50.824;4.718;2022-08-19T05:45:46;57.03;;;32.87;;
12707;SDS011;6418;50.824;4.718;2022-08-19T05:48:15;53.87;;;31.80;;
12707;SDS011;6418;50.824;4.718;2022-08-19T05:50:45;52.97;;;32.03;;
12707;SDS011;6418;50.824;4.718;2022-08-19T05:53:16;52.90;;;30.50;;
12707;SDS011;6418;50.824;4.718;2022-08-19T05:55:44;53.97;;;31.87;;
12707;SDS011;6418;50.824;4.718;2022-08-19T05:58:11;54.10;;;31.90;;
12707;SDS011;6418;50.824;4.718;2022-08-19T06:00:38;50.50;;;30.97;;
12707;SDS011;6418;50.824;4.718;2022-08-19T06:03:05;49.00;;;28.87;;
12707;SDS011;6418;50.824;4.718;2022-08-19T06:05:32;49.97;;;29.13;;
12707;SDS011;6418;50.824;4.718;2022-08-19T06:07:59;48.97;;;29.30;;
12707;SDS011;6418;50.824;4.718;2022-08-19T06:10:27;51.67;;;31.53;;
12707;SDS011;6418;50.824;4.718;2022-08-19T06:12:55;51.37;;;30.17;;
12707;SDS011;6418;50.824;4.718;2022-08-19T06:15:22;48.00;;;31.00;;
12707;SDS011;6418;50.824;4.718;2022-08-19T06:17:50;49.23;;;30.20;;
12707;SDS011;6418;50.824;4.718;2022-08-19T06:20:17;51.70;;;32.03;;
12707;SDS011;6418;50.824;4.718;2022-08-19T06:22:46;50.77;;;32.23;;
12707;SDS011;6418;50.824;4.718;2022-08-19T06:25:16;47.40;;;29.77;;
12707;SDS011;6418;50.824;4.718;2022-08-19T06:27:44;44.97;;;28.37;;
12707;SDS011;6418;50.824;4.718;2022-08-19T06:30:12;49.20;;;29.27;;
12707;SDS011;6418;50.824;4.718;2022-08-19T06:32:39;40.17;;;26.37;;
12707;SDS011;6418;50.824;4.718;2022-08-19T06:35:07;42.63;;;27.00;;
12707;SDS011;6418;50.824;4.718;2022-08-19T06:37:34;40.47;;;25.13;;
12707;SDS011;6418;50.824;4.718;2022-08-19T06:40:03;40.03;;;25.80;;
12707;SDS011;6418;50.824;4.718;2022-08-19T06:42:30;37.50;;;23.67;;
12707;SDS011;6418;50.824;4.718;2022-08-19T06:44:59;34.80;;;22.57;;
12707;SDS011;6418;50.824;4.718;2022-08-19T06:47:28;34.67;;;22.33;;
12707;SDS011;6418;50.824;4.718;2022-08-19T06:49:56;36.63;;;20.63;;
12707;SDS011;6418;50.824;4.718;2022-08-19T06:52:29;32.83;;;20.00;;
12707;SDS011;6418;50.824;4.718;2022-08-19T06:54:57;30.87;;;19.33;;
12707;SDS011;6418;50.824;4.718;2022-08-19T06:57:24;29.77;;;19.37;;
12707;SDS011;6418;50.824;4.718;2022-08-19T06:59:51;26.73;;;17.83;;
12707;SDS011;6418;50.824;4.718;2022-08-19T07:02:21;28.30;;;17.70;;
12707;SDS011;6418;50.824;4.718;2022-08-19T07:04:51;27.03;;;16.40;;
12707;SDS011;6418;50.824;4.718;2022-08-19T07:07:19;24.17;;;16.13;;
12707;SDS011;6418;50.824;4.718;2022-08-19T07:09:47;24.70;;;16.00;;
12707;SDS011;6418;50.824;4.718;2022-08-19T07:12:18;24.53;;;15.57;;
12707;SDS011;6418;50.824;4.718;2022-08-19T07:14:44;23.80;;;14.73;;
12707;SDS011;6418;50.824;4.718;2022-08-19T07:17:12;21.87;;;15.13;;
12707;SDS011;6418;50.824;4.718;2022-08-19T07:19:41;24.23;;;14.17;;
12707;SDS011;6418;50.824;4.718;2022-08-19T07:22:09;22.40;;;13.60;;
12707;SDS011;6418;50.824;4.718;2022-08-19T07:24:37;25.47;;;13.27;;
12707;SDS011;6418;50.824;4.718;2022-08-19T07:27:05;20.13;;;12.50;;
12707;SDS011;6418;50.824;4.718;2022-08-19T07:29:34;23.07;;;12.67;;
12707;SDS011;6418;50.824;4.718;2022-08-19T07:32:02;21.27;;;11.80;;
12707;SDS011;6418;50.824;4.718;2022-08-19T07:34:31;21.33;;;11.33;;
12707;SDS011;6418;50.824;4.718;2022-08-19T07:37:03;20.47;;;11.73;;
12707;SDS011;6418;50.824;4.718;2022-08-19T07:39:32;19.33;;;11.27;;
12707;SDS011;6418;50.824;4.718;2022-08-19T07:42:01;18.73;;;10.73;;
12707;SDS011;6418;50.824;4.718;2022-08-19T07:44:31;22.13;;;10.80;;
12707;SDS011;6418;50.824;4.718;2022-08-19T07:46:59;18.00;;;10.27;;
12707;SDS011;6418;50.824;4.718;2022-08-19T07:49:26;18.33;;;10.33;;
12707;SDS011;6418;50.824;4.718;2022-08-19T07:51:55;16.37;;;9.87;;
12707;SDS011;6418;50.824;4.718;2022-08-19T07:54:25;17.47;;;9.67;;
12707;SDS011;6418;50.824;4.718;2022-08-19T07:56:54;18.67;;;10.03;;
12707;SDS011;6418;50.824;4.718;2022-08-19T07:59:22;19.13;;;9.70;;
12707;SDS011;6418;50.824;4.718;2022-08-19T08:01:50;15.40;;;9.30;;
12707;SDS011;6418;50.824;4.718;2022-08-19T08:04:17;16.93;;;9.20;;
12707;SDS011;6418;50.824;4.718;2022-08-19T08:07:02;15.27;;;8.40;;
12707;SDS011;6418;50.824;4.718;2022-08-19T08:09:48;15.40;;;7.97;;
12707;SDS011;6418;50.824;4.718;2022-08-19T08:12:16;15.10;;;7.13;;
12707;SDS011;6418;50.824;4.718;2022-08-19T08:14:48;12.90;;;7.13;;
12707;SDS011;6418;50.824;4.718;2022-08-19T08:17:17;13.77;;;6.60;;
12707;SDS011;6418;50.824;4.718;2022-08-19T08:19:45;13.90;;;7.20;;
12707;SDS011;6418;50.824;4.718;2022-08-19T08:22:15;12.68;;;7.07;;
12707;SDS011;6418;50.824;4.718;2022-08-19T08:25:02;11.77;;;6.90;;
12707;SDS011;6418;50.824;4.718;2022-08-19T08:27:30;13.50;;;7.03;;
12707;SDS011;6418;50.824;4.718;2022-08-19T08:29:57;15.25;;;7.40;;
12707;SDS011;6418;50.824;4.718;2022-08-19T08:32:24;12.15;;;6.63;;
12707;SDS011;6418;50.824;4.718;2022-08-19T08:34:51;12.82;;;7.15;;
12707;SDS011;6418;50.824;4.718;2022-08-19T08:37:19;13.10;;;7.47;;
12707;SDS011;6418;50.824;4.718;2022-08-19T08:39:47;14.73;;;7.20;;
12707;SDS011;6418;50.824;4.718;2022-08-19T08:42:18;13.50;;;6.80;;
12707;SDS011;6418;50.824;4.718;2022-08-19T08:44:52;11.60;;;6.82;;
12707;SDS011;6418;50.824;4.718;2022-08-19T08:47:23;13.93;;;7.30;;
12707;SDS011;6418;50.824;4.718;2022-08-19T08:49:54;14.13;;;7.22;;
12707;SDS011;6418;50.824;4.718;2022-08-19T08:52:26;13.43;;;6.90;;
12707;SDS011;6418;50.824;4.718;2022-08-19T08:54:57;12.50;;;6.85;;
12707;SDS011;6418;50.824;4.718;2022-08-19T08:57:29;14.68;;;7.40;;
12707;SDS011;6418;50.824;4.718;2022-08-19T09:00:03;12.80;;;6.70;;
12707;SDS011;6418;50.824;4.718;2022-08-19T09:02:37;15.32;;;7.50;;
12707;SDS011;6418;50.824;4.718;2022-08-19T09:05:04;11.55;;;6.72;;
12707;SDS011;6418;50.824;4.718;2022-08-19T09:07:38;13.52;;;7.28;;
12707;SDS011;6418;50.824;4.718;2022-08-19T09:10:14;12.15;;;7.13;;
12707;SDS011;6418;50.824;4.718;2022-08-19T09:12:51;13.77;;;6.68;;
12707;SDS011;6418;50.824;4.718;2022-08-19T09:15:25;11.57;;;5.90;;
12707;SDS011;6418;50.824;4.718;2022-08-19T09:17:59;12.10;;;5.80;;
12707;SDS011;6418;50.824;4.718;2022-08-19T09:20:28;10.40;;;6.07;;
12707;SDS011;6418;50.824;4.718;2022-08-19T09:22:56;11.88;;;6.47;;
12707;SDS011;6418;50.824;4.718;2022-08-19T09:25:24;14.63;;;6.45;;
12707;SDS011;6418;50.824;4.718;2022-08-19T09:27:54;11.98;;;6.22;;
12707;SDS011;6418;50.824;4.718;2022-08-19T09:30:23;13.30;;;6.60;;
12707;SDS011;6418;50.824;4.718;2022-08-19T09:32:52;10.85;;;5.78;;
12707;SDS011;6418;50.824;4.718;2022-08-19T09:35:20;11.55;;;5.78;;
12707;SDS011;6418;50.824;4.718;2022-08-19T09:37:49;10.35;;;5.55;;
12707;SDS011;6418;50.824;4.718;2022-08-19T09:40:17;13.85;;;6.47;;
12707;SDS011;6418;50.824;4.718;2022-08-19T09:42:45;12.13;;;6.30;;
12707;SDS011;6418;50.824;4.718;2022-08-19T09:45:14;11.65;;;5.95;;
12707;SDS011;6418;50.824;4.718;2022-08-19T09:47:42;12.68;;;6.13;;
12707;SDS011;6418;50.824;4.718;2022-08-19T09:50:10;11.82;;;5.45;;
12707;SDS011;6418;50.824;4.718;2022-08-19T09:52:38;11.10;;;5.63;;
12707;SDS011;6418;50.824;4.718;2022-08-19T09:55:08;11.60;;;5.38;;
12707;SDS011;6418;50.824;4.718;2022-08-19T09:57:36;8.90;;;4.80;;
12707;SDS011;6418;50.824;4.718;2022-08-19T10:00:05;9.75;;;5.43;;
12707;SDS011;6418;50.824;4.718;2022-08-19T10:02:35;8.85;;;5.35;;
12707;SDS011;6418;50.824;4.718;2022-08-19T10:05:02;9.55;;;4.78;;
12707;SDS011;6418;50.824;4.718;2022-08-19T10:07:47;8.35;;;4.90;;
12707;SDS011;6418;50.824;4.718;2022-08-19T10:10:15;9.05;;;4.60;;
12707;SDS011;6418;50.824;4.718;2022-08-19T10:12:43;10.27;;;4.60;;
12707;SDS011;6418;50.824;4.718;2022-08-19T10:15:12;10.60;;;5.03;;
12707;SDS011;6418;50.824;4.718;2022-08-19T10:17:41;8.80;;;4.93;;
12707;SDS011;6418;50.824;4.718;2022-08-19T10:20:08;11.00;;;5.20;;
12707;SDS011;6418;50.824;4.718;2022-08-19T10:22:36;10.73;;;4.90;;
12707;SDS011;6418;50.824;4.718;2022-08-19T10:25:04;9.13;;;5.10;;
12707;SDS011;6418;50.824;4.718;2022-08-19T10:27:32;9.93;;;5.18;;
12707;SDS011;6418;50.824;4.718;2022-08-19T10:29:59;9.82;;;5.15;;
12707;SDS011;6418;50.824;4.718;2022-08-19T10:32:26;9.70;;;5.05;;
12707;SDS011;6418;50.824;4.718;2022-08-19T10:34:55;9.43;;;5.10;;
12707;SDS011;6418;50.824;4.718;2022-08-19T10:37:22;11.40;;;5.72;;
12707;SDS011;6418;50.824;4.718;2022-08-19T10:39:49;11.10;;;5.13;;
12707;SDS011;6418;50.824;4.718;2022-08-19T10:42:17;8.18;;;4.65;;
12707;SDS011;6418;50.824;4.718;2022-08-19T10:44:44;9.82;;;5.10;;
12707;SDS011;6418;50.824;4.718;2022-08-19T10:47:13;9.98;;;5.05;;
12707;SDS011;6418;50.824;4.718;2022-08-19T10:49:40;13.50;;;5.68;;
12707;SDS011;6418;50.824;4.718;2022-08-19T10:52:22;10.57;;;5.30;;
12707;SDS011;6418;50.824;4.718;2022-08-19T10:55:01;8.40;;;4.72;;
12707;SDS011;6418;50.824;4.718;2022-08-19T10:57:47;11.32;;;5.65;;
12707;SDS011;6418;50.824;4.718;2022-08-19T11:00:14;11.52;;;5.50;;
12707;SDS011;6418;50.824;4.718;2022-08-19T11:02:41;11.82;;;5.97;;
12707;SDS011;6418;50.824;4.718;2022-08-19T11:05:08;9.82;;;5.18;;
12707;SDS011;6418;50.824;4.718;2022-08-19T11:07:38;10.80;;;4.90;;
12707;SDS011;6418;50.824;4.718;2022-08-19T11:10:05;10.65;;;4.93;;
12707;SDS011;6418;50.824;4.718;2022-08-19T11:12:36;10.95;;;4.70;;
12707;SDS011;6418;50.824;4.718;2022-08-19T11:15:05;9.35;;;4.85;;
12707;SDS011;6418;50.824;4.718;2022-08-19T11:17:35;8.93;;;5.00;;
12707;SDS011;6418;50.824;4.718;2022-08-19T11:20:05;10.80;;;5.10;;
12707;SDS011;6418;50.824;4.718;2022-08-19T11:22:33;8.23;;;5.00;;
12707;SDS011;6418;50.824;4.718;2022-08-19T11:25:02;10.82;;;4.90;;
12707;SDS011;6418;50.824;4.718;2022-08-19T11:27:30;10.73;;;5.43;;
12707;SDS011;6418;50.824;4.718;2022-08-19T11:29:57;11.95;;;5.43;;
12707;SDS011;6418;50.824;4.718;2022-08-19T11:32:23;10.73;;;5.32;;
12707;SDS011;6418;50.824;4.718;2022-08-19T11:34:50;10.52;;;5.25;;
12707;SDS011;6418;50.824;4.718;2022-08-19T11:37:17;10.57;;;5.63;;
12707;SDS011;6418;50.824;4.718;2022-08-19T11:39:44;10.02;;;4.90;;
12707;SDS011;6418;50.824;4.718;2022-08-19T11:42:13;10.70;;;5.75;;
12707;SDS011;6418;50.824;4.718;2022-08-19T11:44:57;9.23;;;5.18;;
12707;SDS011;6418;50.824;4.718;2022-08-19T11:47:24;10.57;;;5.20;;
12707;SDS011;6418;50.824;4.718;2022-08-19T11:49:51;9.43;;;4.97;;
12707;SDS011;6418;50.824;4.718;2022-08-19T11:52:18;10.32;;;5.68;;
12707;SDS011;6418;50.824;4.718;2022-08-19T11:54:45;10.32;;;5.80;;
12707;SDS011;6418;50.824;4.718;2022-08-19T11:57:13;10.50;;;5.50;;
12707;SDS011;6418;50.824;4.718;2022-08-19T11:59:42;9.77;;;5.28;;
12707;SDS011;6418;50.824;4.718;2022-08-19T12:02:13;12.07;;;6.20;;
12707;SDS011;6418;50.824;4.718;2022-08-19T12:04:40;11.73;;;6.13;;
12707;SDS011;6418;50.824;4.718;2022-08-19T12:07:07;10.60;;;6.03;;
12707;SDS011;6418;50.824;4.718;2022-08-19T12:09:34;12.50;;;6.25;;
12707;SDS011;6418;50.824;4.718;2022-08-19T12:12:01;12.43;;;6.82;;
12707;SDS011;6418;50.824;4.718;2022-08-19T12:14:29;13.55;;;7.85;;
12707;SDS011;6418;50.824;4.718;2022-08-19T12:16:57;15.23;;;7.57;;
12707;SDS011;6418;50.824;4.718;2022-08-19T12:19:25;11.35;;;7.00;;
12707;SDS011;6418;50.824;4.718;2022-08-19T12:21:51;12.85;;;7.20;;
12707;SDS011;6418;50.824;4.718;2022-08-19T12:24:20;13.02;;;7.28;;
12707;SDS011;6418;50.824;4.718;2022-08-19T12:26:48;13.30;;;7.20;;
12707;SDS011;6418;50.824;4.718;2022-08-19T12:29:16;12.88;;;7.10;;
12707;SDS011;6418;50.824;4.718;2022-08-19T12:31:44;14.80;;;7.80;;
12707;SDS011;6418;50.824;4.718;2022-08-19T12:34:11;12.68;;;7.22;;
12707;SDS011;6418;50.824;4.718;2022-08-19T12:36:38;12.45;;;7.10;;
12707;SDS011;6418;50.824;4.718;2022-08-19T12:39:05;12.93;;;7.57;;
12707;SDS011;6418;50.824;4.718;2022-08-19T12:41:33;13.52;;;7.10;;
12707;SDS011;6418;50.824;4.718;2022-08-19T12:44:00;12.02;;;6.93;;
12707;SDS011;6418;50.824;4.718;2022-08-19T12:46:27;12.77;;;7.13;;
12707;SDS011;6418;50.824;4.718;2022-08-19T12:48:55;12.35;;;6.97;;
12707;SDS011;6418;50.824;4.718;2022-08-19T12:51:23;13.90;;;7.10;;
12707;SDS011;6418;50.824;4.718;2022-08-19T12:53:50;11.93;;;7.13;;
12707;SDS011;6418;50.824;4.718;2022-08-19T12:56:17;11.55;;;6.38;;
12707;SDS011;6418;50.824;4.718;2022-08-19T12:58:44;12.35;;;6.32;;
12707;SDS011;6418;50.824;4.718;2022-08-19T13:01:12;9.60;;;6.03;;
12707;SDS011;6418;50.824;4.718;2022-08-19T13:03:41;10.25;;;5.88;;
12707;SDS011;6418;50.824;4.718;2022-08-19T13:06:09;14.02;;;5.70;;
12707;SDS011;6418;50.824;4.718;2022-08-19T13:08:36;9.75;;;5.40;;
12707;SDS011;6418;50.824;4.718;2022-08-19T13:11:09;11.13;;;5.80;;
12707;SDS011;6418;50.824;4.718;2022-08-19T13:13:37;8.98;;;5.40;;
12707;SDS011;6418;50.824;4.718;2022-08-19T13:16:06;8.57;;;5.18;;
12707;SDS011;6418;50.824;4.718;2022-08-19T13:18:34;7.88;;;4.85;;
12707;SDS011;6418;50.824;4.718;2022-08-19T13:21:02;8.32;;;5.10;;
12707;SDS011;6418;50.824;4.718;2022-08-19T13:23:31;8.73;;;5.38;;
12707;SDS011;6418;50.824;4.718;2022-08-19T13:25:59;7.97;;;4.82;;
12707;SDS011;6418;50.824;4.718;2022-08-19T13:28:27;9.07;;;4.70;;
12707;SDS011;6418;50.824;4.718;2022-08-19T13:31:15;9.10;;;4.95;;
12707;SDS011;6418;50.824;4.718;2022-08-19T13:33:59;10.18;;;5.10;;
12707;SDS011;6418;50.824;4.718;2022-08-19T13:36:27;11.00;;;5.40;;
12707;SDS011;6418;50.824;4.718;2022-08-19T13:38:55;7.57;;;4.15;;
12707;SDS011;6418;50.824;4.718;2022-08-19T13:41:22;7.80;;;4.22;;
12707;SDS011;6418;50.824;4.718;2022-08-19T13:43:49;6.68;;;3.67;;
12707;SDS011;6418;50.824;4.718;2022-08-19T13:46:16;6.30;;;4.00;;
12707;SDS011;6418;50.824;4.718;2022-08-19T13:48:44;5.68;;;3.50;;
12707;SDS011;6418;50.824;4.718;2022-08-19T13:51:13;7.57;;;4.13;;
12707;SDS011;6418;50.824;4.718;2022-08-19T13:53:41;6.78;;;3.83;;
12707;SDS011;6418;50.824;4.718;2022-08-19T13:56:14;6.57;;;4.00;;
12707;SDS011;6418;50.824;4.718;2022-08-19T13:58:44;4.97;;;3.28;;
12707;SDS011;6418;50.824;4.718;2022-08-19T14:01:11;8.02;;;3.85;;
12707;SDS011;6418;50.824;4.718;2022-08-19T14:03:38;6.20;;;3.40;;
12707;SDS011;6418;50.824;4.718;2022-08-19T14:06:05;8.75;;;4.22;;
12707;SDS011;6418;50.824;4.718;2022-08-19T14:08:32;7.65;;;3.33;;
12707;SDS011;6418;50.824;4.718;2022-08-19T14:11:00;5.78;;;3.22;;
12707;SDS011;6418;50.824;4.718;2022-08-19T14:13:28;3.42;;;3.10;;
12707;SDS011;6418;50.824;4.718;2022-08-19T14:15:55;7.93;;;3.90;;
12707;SDS011;6418;50.824;4.718;2022-08-19T14:18:23;4.30;;;3.45;;
12707;SDS011;6418;50.824;4.718;2022-08-19T14:20:50;6.32;;;3.13;;
12707;SDS011;6418;50.824;4.718;2022-08-19T14:23:17;4.97;;;3.40;;
12707;SDS011;6418;50.824;4.718;2022-08-19T14:25:45;4.93;;;3.25;;
12707;SDS011;6418;50.824;4.718;2022-08-19T14:28:12;7.32;;;3.20;;
12707;SDS011;6418;50.824;4.718;2022-08-19T14:30:40;5.35;;;3.53;;
12707;SDS011;6418;50.824;4.718;2022-08-19T14:33:09;5.88;;;3.10;;
12707;SDS011;6418;50.824;4.718;2022-08-19T14:35:36;4.03;;;3.20;;
12707;SDS011;6418;50.824;4.718;2022-08-19T14:38:04;4.53;;;3.30;;
12707;SDS011;6418;50.824;4.718;2022-08-19T14:40:33;3.45;;;3.15;;
12707;SDS011;6418;50.824;4.718;2022-08-19T14:43:00;4.43;;;3.22;;
12707;SDS011;6418;50.824;4.718;2022-08-19T14:45:30;6.28;;;3.10;;
12707;SDS011;6418;50.824;4.718;2022-08-19T14:48:00;7.95;;;3.28;;
12707;SDS011;6418;50.824;4.718;2022-08-19T14:50:26;5.47;;;3.30;;
12707;SDS011;6418;50.824;4.718;2022-08-19T14:52:57;5.13;;;3.03;;